Time;durP1;ratioP1;P1;durP2;ratioP2;P2;SDS_P1;SDS_P2;PMS_P1;PMS_P2;Temp;Humidity;BMP_temperature;BMP_pressure;BME280_temperature;BME280_humidity;BME280_pressure;Samples;Min_cycle;Max_cycle;Signal;HPM_P1;HPM_P2
2022/09/11 00:03:09;;;;;;;31.67;25.73;;;;;;;16.48;68.00;99876.25;10393954;28;20093;-82
2022/09/11 00:08:15;;;;;;;33.53;28.52;;;;;;;16.56;67.96;99872.94;10399333;28;20060;-82
2022/09/11 00:13:21;;;;;;;31.70;26.23;;;;;;;16.51;67.76;99864.59;10388128;28;20056;-83
2022/09/11 00:18:23;;;;;;;26.20;23.10;;;;;;;16.34;67.94;99871.25;10395390;28;20169;-82
2022/09/11 00:23:26;;;;;;;27.38;23.38;;;;;;;16.39;67.49;99876.97;10395883;28;20057;-82
2022/09/11 00:28:27;;;;;;;29.05;25.98;;;;;;;16.42;67.66;99881.16;10397544;28;20407;-83
2022/09/11 00:33:30;;;;;;;31.27;27.58;;;;;;;16.39;67.85;99884.03;10396790;28;20041;-84
2022/09/11 00:38:34;;;;;;;34.17;28.95;;;;;;;16.30;67.89;99876.91;10397514;28;20537;-83
2022/09/11 00:43:59;;;;;;;32.13;28.27;;;;;;;16.18;68.37;99887.53;10391829;28;20418;-84
2022/09/11 00:49:10;;;;;;;30.73;27.17;;;;;;;16.26;68.01;99892.19;10396304;28;20050;-83
2022/09/11 00:54:16;;;;;;;33.95;29.13;;;;;;;16.26;68.06;99899.25;10404918;28;20041;-83
2022/09/11 00:59:27;;;;;;;34.17;29.17;;;;;;;16.28;68.12;99899.97;10396771;28;20494;-83
2022/09/11 01:04:28;;;;;;;;;;;;;;;15.79;68.98;99897.91;10396019;28;20045;-83
2022/09/11 01:09:32;;;;;;;32.92;27.45;;;;;;;16.04;68.39;99887.84;10395998;28;19929;-83
2022/09/11 01:14:51;;;;;;;28.75;24.77;;;;;;;16.08;67.65;99894.53;10392153;28;20500;-83
2022/09/11 01:20:11;;;;;;;41.13;30.90;;;;;;;16.05;68.25;99893.97;10395563;28;20486;-83
2022/09/11 01:25:30;;;;;;;33.85;26.88;;;;;;;15.96;68.39;99892.91;10393589;28;20053;-83
2022/09/11 01:30:37;;;;;;;41.67;29.17;;;;;;;15.88;68.52;99892.72;10394916;28;20054;-83
2022/09/11 01:35:48;;;;;;;41.60;31.27;;;;;;;15.84;68.47;99912.38;10395528;28;20939;-83
2022/09/11 01:41:06;;;;;;;49.70;33.38;;;;;;;15.77;68.51;99913.03;10386150;28;20392;-83
2022/09/11 01:46:09;;;;;;;40.95;32.10;;;;;;;15.68;68.58;99916.38;10398179;28;20135;-83
2022/09/11 01:51:20;;;;;;;43.63;32.03;;;;;;;15.61;68.88;99917.84;10393978;28;20061;-83
2022/09/11 01:56:26;;;;;;;45.53;30.70;;;;;;;15.66;68.54;99919.16;10393892;28;20419;-83
2022/09/11 02:01:32;;;;;;;41.53;32.50;;;;;;;15.68;68.64;99925.13;10392220;28;20053;-83
2022/09/11 02:06:54;;;;;;;37.35;29.63;;;;;;;15.65;68.65;99921.94;10405717;28;20418;-83
2022/09/11 02:12:00;;;;;;;50.97;34.38;;;;;;;15.57;68.83;99930.44;10399602;28;20057;-83
2022/09/11 02:17:19;;;;;;;62.97;38.95;;;;;;;15.45;69.23;99934.00;10399539;28;20106;-83
2022/09/11 02:22:21;;;;;;;86.80;45.20;;;;;;;15.36;69.34;99943.50;10399292;28;20060;-83
2022/09/11 02:27:26;;;;;;;54.15;38.63;;;;;;;15.24;69.67;99951.53;10397972;28;20546;-83
2022/09/11 02:32:30;;;;;;;40.95;32.53;;;;;;;15.30;69.25;99953.69;10404690;28;20479;-83
2022/09/11 02:38:09;;;;;;;66.32;40.35;;;;;;;15.32;69.21;99951.78;10398054;28;20045;-84
2022/09/11 02:43:11;;;;;;;64.10;38.70;;;;;;;15.38;69.26;99960.03;10391534;28;20092;-83
2022/09/11 02:48:28;;;;;;;75.97;42.13;;;;;;;15.45;69.18;99967.47;10395722;28;20934;-83
2022/09/11 02:53:52;;;;;;;92.82;46.05;;;;;;;15.33;69.58;99979.78;10389821;28;20761;-83
2022/09/11 02:58:57;;;;;;;70.30;39.00;;;;;;;15.37;69.40;99978.59;10398167;28;20057;-83
2022/09/11 03:03:59;;;;;;;70.78;41.65;;;;;;;15.34;69.18;99981.47;10393117;28;20533;-83
2022/09/11 03:09:17;;;;;;;78.45;43.97;;;;;;;15.34;69.27;99982.31;10391830;28;20055;-83
2022/09/11 03:14:18;;;;;;;113.45;50.50;;;;;;;15.41;69.02;99987.94;10391806;28;20048;-82
2022/09/11 03:19:20;;;;;;;110.88;50.55;;;;;;;15.33;69.20;99987.69;10392011;28;20060;-83
2022/09/11 03:24:22;;;;;;;77.07;44.90;;;;;;;15.29;69.16;99989.75;10391653;28;20875;-83
2022/09/11 03:29:23;;;;;;;51.53;35.92;;;;;;;15.33;69.49;99992.97;10396256;28;20843;-83
2022/09/11 03:34:25;;;;;;;68.32;41.20;;;;;;;15.46;69.21;99998.97;10395517;28;20042;-83
2022/09/11 03:39:27;;;;;;;90.85;46.33;;;;;;;15.50;69.46;99991.69;10399381;28;20144;-84
2022/09/11 03:44:29;;;;;;;93.57;45.58;;;;;;;15.56;69.06;99999.94;10399831;28;20057;-84
2022/09/11 03:49:30;;;;;;;96.22;46.78;;;;;;;15.58;68.86;100002.44;10400250;28;20065;-83
2022/09/11 03:54:33;;;;;;;124.20;51.78;;;;;;;15.46;69.27;100006.88;10400597;28;20049;-84
2022/09/11 03:59:34;;;;;;;107.40;46.97;;;;;;;15.35;69.45;100006.84;10398073;28;20426;-84
2022/09/11 04:04:36;;;;;;;97.80;44.53;;;;;;;15.32;69.42;100007.13;10394805;28;20053;-83
2022/09/11 04:09:38;;;;;;;100.32;44.78;;;;;;;15.43;69.52;100002.66;10399654;28;20057;-83
2022/09/11 04:14:39;;;;;;;156.63;53.85;;;;;;;15.50;69.24;99999.59;10397286;28;20046;-83
2022/09/11 04:19:41;;;;;;;87.25;44.08;;;;;;;15.46;69.05;100003.38;10394916;28;20052;-84
2022/09/11 04:24:43;;;;;;;102.63;45.53;;;;;;;15.45;69.28;100002.53;10398815;28;20050;-83
2022/09/11 04:29:45;;;;;;;75.85;42.25;;;;;;;15.46;69.23;100011.28;10397716;28;20407;-84
2022/09/11 04:34:47;;;;;;;91.40;42.28;;;;;;;15.45;69.52;100015.72;10392594;28;20063;-83
2022/09/11 04:39:48;;;;;;;69.28;39.60;;;;;;;15.54;69.19;100012.41;10397731;28;20064;-83
2022/09/11 04:44:50;;;;;;;70.75;40.85;;;;;;;15.57;69.06;100020.06;10398117;28;20057;-83
2022/09/11 04:49:52;;;;;;;85.47;42.55;;;;;;;15.68;68.92;100025.34;10398022;28;20396;-83
2022/09/11 04:54:54;;;;;;;72.32;40.88;;;;;;;15.78;68.39;100023.63;10397418;28;20438;-83
2022/09/11 04:59:57;;;;;;;79.55;43.30;;;;;;;15.85;68.44;100030.13;10396185;28;20057;-83
2022/09/11 05:04:58;;;;;;;63.55;39.28;;;;;;;15.85;68.24;100034.53;10389509;28;20049;-83
2022/09/11 05:10:02;;;;;;;74.28;42.88;;;;;;;15.87;68.27;100045.81;10388957;28;20411;-84
2022/09/11 05:15:04;;;;;;;62.03;39.08;;;;;;;15.92;68.05;100044.47;10391602;28;20049;-83
2022/09/11 05:20:06;;;;;;;88.68;43.47;;;;;;;16.01;68.37;100050.81;10381884;28;20053;-83
2022/09/11 05:25:12;;;;;;;83.70;43.17;;;;;;;16.08;68.13;100042.28;10392457;28;20045;-82
2022/09/11 05:30:15;;;;;;;70.90;40.45;;;;;;;16.10;68.21;100052.72;10386988;28;20568;-83
2022/09/11 05:35:17;;;;;;;108.75;47.42;;;;;;;16.11;68.11;100054.41;10393813;28;20418;-83
2022/09/11 05:40:19;;;;;;;108.55;47.05;;;;;;;16.12;68.27;100066.63;10392022;28;20064;-83
2022/09/11 05:45:21;;;;;;;63.33;37.03;;;;;;;16.16;68.08;100060.16;10376845;28;20048;-83
2022/09/11 05:50:23;;;;;;;96.25;44.83;;;;;;;16.20;68.17;100057.13;10393025;28;20123;-83
2022/09/11 05:55:24;;;;;;;68.25;39.72;;;;;;;16.21;67.85;100074.66;10391660;28;20053;-83
2022/09/11 06:00:28;;;;;;;63.90;39.25;;;;;;;16.42;67.76;100087.06;10388030;28;20961;-83
2022/09/11 06:05:30;;;;;;;46.97;32.75;;;;;;;16.66;66.81;100085.94;10389257;28;20049;-83
2022/09/11 06:10:32;;;;;;;57.13;35.95;;;;;;;16.86;66.64;100087.75;10381945;28;20062;-84
2022/09/11 06:15:34;;;;;;;54.00;35.80;;;;;;;16.75;66.70;100097.53;10382610;28;20049;-84
2022/09/11 06:21:00;;;;;;;57.53;35.15;;;;;;;16.69;66.86;100098.06;10386202;28;20131;-83
2022/09/11 06:26:13;;;;;;;55.78;34.22;;;;;;;17.02;66.05;100100.50;10390388;28;20116;-83
2022/09/11 06:31:18;;;;;;;47.58;32.30;;;;;;;17.20;66.42;100101.59;10387383;28;20072;-83
2022/09/11 06:36:22;;;;;;;51.13;33.60;;;;;;;17.62;65.32;100102.44;10391100;28;20263;-84
2022/09/11 06:41:26;;;;;;;50.70;33.22;;;;;;;17.80;64.97;100103.50;10379980;28;20050;-83
2022/09/11 06:46:28;;;;;;;51.53;32.95;;;;;;;17.87;64.65;100104.66;10380189;28;20505;-83
2022/09/11 06:51:29;;;;;;;50.15;32.55;;;;;;;17.82;64.84;100109.50;10383742;28;20050;-83
2022/09/11 06:56:31;;;;;;;46.38;31.48;;;;;;;18.16;64.11;100107.38;10385296;28;20049;-83
2022/09/11 07:01:33;;;;;;;42.75;30.80;;;;;;;18.61;62.68;100109.44;10390142;28;20061;-84
2022/09/11 07:06:37;;;;;;;44.97;31.02;;;;;;;18.92;62.18;100111.94;10397299;28;20061;-84
2022/09/11 07:11:42;;;;;;;45.10;31.27;;;;;;;19.30;61.32;100109.28;10396759;28;20406;-83
2022/09/11 07:16:45;;;;;;;39.70;28.77;;;;;;;19.68;60.17;100106.53;10400575;28;20059;-84
2022/09/11 07:21:46;;;;;;;43.85;30.10;;;;;;;19.88;59.79;100110.81;10395411;28;20572;-84
2022/09/11 07:26:48;;;;;;;38.58;27.73;;;;;;;20.04;59.24;100108.38;10397938;28;20049;-84
2022/09/11 07:31:50;;;;;;;36.15;25.98;;;;;;;19.97;58.57;100112.59;10396910;28;20140;-83
2022/09/11 07:36:52;;;;;;;33.05;25.27;;;;;;;19.95;58.08;100108.44;10398398;28;20072;-84
2022/09/11 07:41:53;;;;;;;28.40;21.02;;;;;;;20.56;56.81;100101.47;10400414;28;20049;-83
2022/09/11 07:46:55;;;;;;;27.58;19.08;;;;;;;20.41;56.45;100116.25;10395857;28;20422;-84
2022/09/11 07:51:58;;;;;;;22.95;18.35;;;;;;;20.13;56.49;100106.66;10398381;28;20562;-83
2022/09/11 07:56:59;;;;;;;25.05;19.88;;;;;;;20.04;56.92;100102.22;10395771;28;20067;-84
2022/09/11 08:02:01;;;;;;;28.92;22.15;;;;;;;19.93;57.09;100121.00;10398242;28;21077;-83
2022/09/11 08:07:04;;;;;;;28.30;21.80;;;;;;;19.70;57.32;100124.97;10396239;28;20068;-83
2022/09/11 08:12:06;;;;;;;29.63;22.30;;;;;;;19.39;58.63;100127.84;10397325;28;21000;-83
2022/09/11 08:17:08;;;;;;;29.25;22.10;;;;;;;19.27;58.92;100131.63;10394903;28;20045;-83
2022/09/11 08:22:10;;;;;;;26.20;19.75;;;;;;;19.37;58.52;100134.25;10395543;28;20072;-83
2022/09/11 08:27:11;;;;;;;30.15;22.45;;;;;;;19.26;58.88;100142.38;10398875;28;20423;-85
2022/09/11 08:32:13;;;;;;;30.95;22.52;;;;;;;19.34;58.69;100148.66;10394755;28;20526;-84
2022/09/11 08:37:17;;;;;;;31.52;23.50;;;;;;;19.26;58.61;100160.94;10396522;28;20053;-84
2022/09/11 08:42:19;;;;;;;30.58;21.25;;;;;;;19.65;58.27;100161.69;10395737;28;20053;-83
2022/09/11 08:47:24;;;;;;;25.38;20.70;;;;;;;20.59;55.77;100157.00;10396949;28;20057;-84
2022/09/11 08:52:26;;;;;;;29.00;19.17;;;;;;;20.94;54.70;100156.19;10394365;28;20049;-84
2022/09/11 08:57:56;;;;;;;23.95;19.20;;;;;;;20.97;54.23;100159.38;10392766;28;20061;-84
2022/09/11 09:03:31;;;;;;;25.50;18.65;;;;;;;20.95;53.68;100164.00;10392885;28;20079;-84
2022/09/11 09:08:54;;;;;;;23.67;18.27;;;;;;;20.92;53.65;100163.50;10385566;28;20057;-84
2022/09/11 09:14:15;;;;;;;24.67;19.00;;;;;;;21.35;53.59;100165.38;10391445;28;20507;-84
2022/09/11 09:19:21;;;;;;;;;;;;;;;21.74;51.45;100161.34;10390190;28;20053;-84
2022/09/11 09:24:25;;;;;;;21.50;16.60;;;;;;;21.12;53.58;100177.44;10387855;28;19932;-84
2022/09/11 09:29:35;;;;;;;23.83;17.20;;;;;;;20.77;53.96;100181.78;10389359;28;20071;-84
2022/09/11 09:34:42;;;;;;;23.80;19.13;;;;;;;20.49;54.16;100179.28;10390031;28;20041;-85
2022/09/11 09:39:44;;;;;;;27.73;18.98;;;;;;;20.27;54.05;100191.94;10389141;28;20289;-84
2022/09/11 09:45:16;;;;;;;26.98;19.77;;;;;;;20.65;53.10;100192.78;10385274;28;20045;-84
2022/09/11 09:56:48;;;;;;;21.95;17.55;;;;;;;22.14;50.00;100180.22;10376879;28;20523;-85
2022/09/11 10:01:53;;;;;;;;;;;;;;;21.20;52.28;100182.84;10391499;28;20057;-84
2022/09/11 10:07:19;;;;;;;29.48;20.02;;;;;;;21.08;51.06;100185.75;10377630;28;19979;-84
2022/09/11 10:12:25;;;;;;;26.35;19.80;;;;;;;20.97;52.30;100180.66;10374747;28;20424;-84
2022/09/11 10:17:37;;;;;;;23.70;17.83;;;;;;;20.97;51.67;100183.31;10383943;28;21519;-84
2022/09/11 10:22:50;;;;;;;22.70;17.80;;;;;;;21.19;51.40;100179.38;10380202;28;20057;-84
2022/09/11 10:28:13;;;;;;;21.45;15.63;;;;;;;21.57;49.40;100175.53;10381590;28;20143;-84
2022/09/11 10:33:47;;;;;;;18.13;13.68;;;;;;;22.41;47.24;100176.50;10390182;28;20061;-85
2022/09/11 10:38:50;;;;;;;18.83;13.48;;;;;;;22.52;47.66;100169.03;10378526;28;20069;-84
2022/09/11 10:43:59;;;;;;;17.05;12.75;;;;;;;22.68;46.91;100170.91;10387368;28;20138;-85
2022/09/11 10:49:05;;;;;;;16.85;13.15;;;;;;;22.41;46.74;100165.84;10376043;28;20060;-84
2022/09/11 10:54:30;;;;;;;15.88;12.10;;;;;;;22.47;45.44;100167.88;10382505;28;20139;-84
2022/09/11 10:59:44;;;;;;;19.35;12.07;;;;;;;22.37;45.71;100170.66;10373498;28;20060;-85
2022/09/11 11:04:48;;;;;;;16.25;12.05;;;;;;;22.20;46.13;100179.59;10385070;28;20045;-84
2022/09/11 11:09:59;;;;;;;17.17;12.23;;;;;;;22.24;46.38;100169.44;10372569;28;20143;-84
2022/09/11 11:15:21;;;;;;;17.15;12.70;;;;;;;22.05;46.44;100159.03;10388232;28;20042;-84
2022/09/11 11:20:46;;;;;;;16.55;11.90;;;;;;;22.25;47.66;100161.28;10382047;28;20060;-84
2022/09/11 11:26:10;;;;;;;15.00;11.57;;;;;;;22.19;46.30;100161.91;10384934;28;20069;-84
2022/09/11 11:31:30;;;;;;;14.02;9.88;;;;;;;21.67;46.29;100157.63;10369011;28;20057;-85
2022/09/11 11:36:41;;;;;;;12.77;9.00;;;;;;;21.26;47.92;100150.31;10377722;28;20053;-83
2022/09/11 11:41:49;;;;;;;14.60;8.32;;;;;;;21.28;47.80;100150.97;10380100;28;20057;-83
2022/09/11 11:46:58;;;;;;;12.20;8.10;;;;;;;21.63;46.50;100148.28;10365049;28;20057;-83
2022/09/11 11:52:30;;;;;;;12.05;8.40;;;;;;;21.81;46.41;100157.88;10382340;28;20049;-83
2022/09/11 11:57:43;;;;;;;11.85;8.30;;;;;;;22.02;46.43;100165.50;10369626;28;20064;-82
2022/09/11 12:03:31;;;;;;;11.88;8.43;;;;;;;22.13;45.71;100159.09;10380242;28;20054;-82
2022/09/11 12:08:46;;;;;;;14.13;10.00;;;;;;;22.28;46.13;100147.66;10381365;28;20160;-82
2022/09/11 12:13:48;;;;;;;14.05;9.85;;;;;;;22.39;46.52;100150.00;10392492;28;20072;-83
2022/09/11 12:19:06;;;;;;;12.27;9.27;;;;;;;22.37;45.06;100144.00;10377752;28;20103;-83
2022/09/11 12:24:13;;;;;;;17.77;9.48;;;;;;;22.41;44.98;100140.00;10387252;28;20077;-83
2022/09/11 12:29:29;;;;;;;11.88;8.73;;;;;;;22.47;44.88;100136.72;10378502;28;20057;-83
2022/09/11 12:34:38;;;;;;;10.38;7.65;;;;;;;22.60;43.70;100145.06;10384486;28;20099;-82
2022/09/11 12:40:01;;;;;;;10.77;7.70;;;;;;;22.70;42.71;100144.91;10375588;28;20057;-83
2022/09/11 12:45:34;;;;;;;11.43;7.53;;;;;;;22.87;41.57;100133.31;10382733;28;20458;-83
2022/09/11 12:50:48;;;;;;;11.90;7.63;;;;;;;22.66;42.79;100136.41;10383025;28;20211;-83
2022/09/11 12:56:03;;;;;;;10.43;7.38;;;;;;;22.55;42.49;100134.09;10377859;28;20458;-83
2022/09/11 13:01:24;;;;;;;12.05;8.40;;;;;;;22.79;42.27;100122.66;10378356;28;20057;-83
2022/09/11 13:06:50;;;;;;;10.25;7.72;;;;;;;22.92;40.33;100119.50;10373662;28;20056;-83
2022/09/11 13:12:14;;;;;;;14.07;8.45;;;;;;;22.90;41.68;100114.34;10379996;28;20388;-83
2022/09/11 13:17:31;;;;;;;10.30;7.00;;;;;;;23.11;40.80;100116.47;10364632;28;20503;-83
2022/09/11 13:22:37;;;;;;;8.07;6.20;;;;;;;23.27;41.55;100108.47;10384075;28;20198;-83
2022/09/11 13:27:43;;;;;;;9.50;7.15;;;;;;;23.54;41.01;100102.78;10382043;28;20488;-82
2022/09/11 13:32:49;;;;;;;8.88;6.47;;;;;;;23.88;40.70;100099.84;10392141;28;20045;-83
2022/09/11 13:38:30;;;;;;;13.10;7.72;;;;;;;23.96;39.81;100087.28;10385551;28;20079;-82
2022/09/11 13:43:38;;;;;;;11.18;7.82;;;;;;;23.89;39.72;100091.66;10372944;28;20045;-83
2022/09/11 13:48:44;;;;;;;10.55;7.05;;;;;;;24.17;38.92;100095.56;10382903;28;20068;-83
2022/09/11 13:53:55;;;;;;;10.43;8.05;;;;;;;24.19;38.87;100082.88;10383306;28;20053;-84
2022/09/11 13:58:58;;;;;;;12.10;7.43;;;;;;;24.04;38.84;100081.91;10382164;28;20919;-84
2022/09/11 14:04:10;;;;;;;9.25;6.63;;;;;;;23.93;38.75;100076.97;10383031;28;20596;-85
2022/09/11 14:09:20;;;;;;;11.60;7.75;;;;;;;23.33;39.57;100079.25;10386646;28;20515;-85
2022/09/11 14:14:25;;;;;;;;;;;;;;;23.04;40.38;100075.47;10390603;28;20048;-86
2022/09/11 14:19:33;;;;;;;13.85;7.70;;;;;;;23.25;39.87;100076.59;10401152;28;20536;-86
2022/09/11 14:24:37;;;;;;;10.65;8.07;;;;;;;23.29;39.39;100074.44;10391581;28;20054;-86
2022/09/11 14:29:39;;;;;;;9.57;7.50;;;;;;;23.30;39.77;100068.94;10392776;28;20107;-86
2022/09/11 14:34:41;;;;;;;11.70;7.75;;;;;;;23.31;39.55;100061.75;10394645;28;20055;-87
2022/09/11 14:39:56;;;;;;;10.05;7.30;;;;;;;23.24;38.83;100058.94;10383926;28;20100;-85
2022/09/11 14:45:06;;;;;;;10.00;7.35;;;;;;;23.32;38.83;100052.75;10393008;28;20045;-87
2022/09/11 14:50:11;;;;;;;10.43;7.07;;;;;;;23.22;38.70;100046.78;10392834;28;20057;-87
2022/09/11 14:55:15;;;;;;;8.88;6.47;;;;;;;23.49;39.30;100046.41;10392743;28;20855;-87
2022/09/11 15:00:18;;;;;;;8.70;6.50;;;;;;;23.47;38.81;100048.41;10395391;28;20860;-87
2022/09/11 15:05:22;;;;;;;10.02;7.00;;;;;;;23.27;38.93;100039.91;10390573;28;21073;-86
2022/09/11 15:10:24;;;;;;;10.73;6.93;;;;;;;23.31;39.08;100043.91;10392913;28;20100;-86
2022/09/11 15:15:27;;;;;;;7.43;5.88;;;;;;;23.36;38.90;100035.41;10388843;28;20132;-85
2022/09/11 15:20:28;;;;;;;7.93;6.47;;;;;;;23.44;38.67;100038.06;10386365;28;20431;-89
2022/09/11 15:25:31;;;;;;;7.88;6.25;;;;;;;23.55;38.79;100029.72;10394662;28;20052;-88
2022/09/11 15:30:33;;;;;;;9.57;6.97;;;;;;;23.60;38.88;100027.34;10404966;28;20057;-86
2022/09/11 15:35:35;;;;;;;9.30;6.63;;;;;;;23.60;38.79;100026.50;10398191;28;20469;-85
2022/09/11 15:40:38;;;;;;;8.25;6.85;;;;;;;23.50;39.02;100026.72;10392101;28;20061;-86
2022/09/11 15:45:42;;;;;;;10.88;6.78;;;;;;;23.39;38.54;100025.19;10387557;28;20049;-86
2022/09/11 15:50:58;;;;;;;9.85;7.07;;;;;;;23.35;38.38;100023.06;10387590;28;20057;-85
2022/09/11 15:56:10;;;;;;;8.70;6.78;;;;;;;23.18;39.00;100021.44;10384468;28;20061;-86
2022/09/11 16:01:19;;;;;;;;;;;;;;;22.79;40.02;100017.81;10385278;28;20061;-86
2022/09/11 16:06:26;;;;;;;8.43;6.70;;;;;;;22.94;39.61;100016.97;10382519;28;19960;-86
2022/09/11 16:11:33;;;;;;;11.25;7.28;;;;;;;22.89;40.25;100021.13;10386498;28;20081;-86
2022/09/11 16:16:38;;;;;;;7.82;6.57;;;;;;;22.70;40.38;100027.59;10385812;28;20691;-86
2022/09/11 16:21:45;;;;;;;9.18;7.53;;;;;;;22.49;39.87;100025.44;10385842;28;20060;-85
2022/09/11 16:26:47;;;;;;;9.88;6.80;;;;;;;22.43;40.24;100026.09;10395778;28;20056;-85
2022/09/11 16:31:51;;;;;;;9.68;6.82;;;;;;;22.32;41.05;100022.91;10381248;28;20100;-86
2022/09/11 16:36:56;;;;;;;10.10;7.15;;;;;;;22.31;41.84;100023.94;10383641;28;20049;-86
2022/09/11 16:42:00;;;;;;;8.38;6.75;;;;;;;22.18;41.52;100021.72;10385545;28;20106;-86
2022/09/11 16:47:06;;;;;;;9.00;7.00;;;;;;;21.97;41.60;100033.78;10385013;28;20055;-85
2022/09/11 16:52:14;;;;;;;8.00;6.72;;;;;;;21.86;42.09;100026.94;10386665;28;20795;-86
2022/09/11 16:57:19;;;;;;;8.52;6.30;;;;;;;21.87;42.39;100033.91;10388968;28;20084;-85
2022/09/11 17:02:21;;;;;;;7.72;6.65;;;;;;;21.72;42.75;100027.56;10387302;28;20058;-85
2022/09/11 17:07:26;;;;;;;9.63;6.50;;;;;;;21.56;43.74;100032.78;10384639;28;20132;-85
2022/09/11 17:12:33;;;;;;;9.77;6.85;;;;;;;21.37;44.70;100031.22;10385962;28;20065;-85
2022/09/11 17:17:41;;;;;;;8.77;7.15;;;;;;;21.13;44.71;100025.69;10381398;28;20049;-85
2022/09/11 17:22:45;;;;;;;9.10;7.20;;;;;;;20.99;46.00;100031.59;10380469;28;20059;-85
2022/09/11 17:27:47;;;;;;;9.50;7.40;;;;;;;20.76;47.22;100025.13;10386387;28;20054;-86
2022/09/11 17:32:52;;;;;;;11.45;7.95;;;;;;;20.51;48.36;100029.34;10390546;28;20049;-86
2022/09/11 17:38:04;;;;;;;11.50;7.45;;;;;;;20.22;49.05;100031.38;10382760;28;20463;-86
2022/09/11 17:43:11;;;;;;;10.75;7.68;;;;;;;19.99;49.30;100025.66;10384100;28;20061;-86
2022/09/11 17:48:23;;;;;;;9.10;7.82;;;;;;;19.75;50.41;100035.97;10385518;28;20053;-86
2022/09/11 17:53:36;;;;;;;9.52;8.32;;;;;;;19.43;52.16;100038.22;10383897;28;20527;-86
2022/09/11 17:58:43;;;;;;;13.25;8.32;;;;;;;19.18;52.02;100044.13;10377842;28;20084;-86
2022/09/11 18:03:52;;;;;;;12.70;8.75;;;;;;;18.94;53.11;100047.22;10384950;28;20161;-86
2022/09/11 18:09:03;;;;;;;10.65;8.55;;;;;;;18.75;53.38;100047.25;10396858;28;20147;-86
2022/09/11 18:14:06;;;;;;;13.30;8.77;;;;;;;18.53;54.43;100056.31;10378393;28;20058;-86
2022/09/11 18:19:13;;;;;;;12.55;9.07;;;;;;;18.33;54.80;100059.09;10386987;28;20422;-85
2022/09/11 18:24:19;;;;;;;14.68;9.73;;;;;;;18.22;55.42;100056.59;10385946;28;20076;-86
2022/09/11 18:29:22;;;;;;;11.18;8.90;;;;;;;18.06;55.67;100058.88;10390313;28;20100;-86
2022/09/11 18:34:27;;;;;;;14.98;9.18;;;;;;;17.90;56.05;100069.13;10385404;28;20428;-85
2022/09/11 18:39:32;;;;;;;13.93;10.57;;;;;;;17.76;56.78;100068.53;10382594;28;20053;-84
2022/09/11 18:44:37;;;;;;;11.98;9.80;;;;;;;17.68;57.17;100067.53;10386407;28;20049;-84
2022/09/11 18:49:39;;;;;;;10.88;9.70;;;;;;;17.58;57.65;100090.47;10382418;28;20140;-84
2022/09/11 18:54:41;;;;;;;14.00;9.70;;;;;;;17.26;58.19;100090.50;10392036;28;20053;-83
2022/09/11 18:59:43;;;;;;;14.50;10.05;;;;;;;17.07;58.87;100095.69;10395326;28;20061;-83
2022/09/11 19:04:45;;;;;;;11.38;10.18;;;;;;;17.09;59.06;100100.84;10393704;28;20045;-83
2022/09/11 19:09:48;;;;;;;13.18;10.35;;;;;;;17.13;59.38;100104.91;10388404;28;20200;-82
2022/09/11 19:14:52;;;;;;;16.95;12.85;;;;;;;17.21;59.28;100111.22;10388624;28;20045;-83
2022/09/11 19:19:55;;;;;;;14.75;11.50;;;;;;;17.16;59.37;100099.38;10384022;28;20049;-83
2022/09/11 19:24:58;;;;;;;17.52;11.18;;;;;;;17.06;59.99;100103.75;10390145;28;20056;-82
2022/09/11 19:30:00;;;;;;;13.27;11.00;;;;;;;16.98;59.85;100104.38;10395903;28;20057;-82
2022/09/11 19:35:03;;;;;;;16.08;11.35;;;;;;;16.83;60.40;100106.47;10393805;28;20064;-81
2022/09/11 19:40:06;;;;;;;13.93;11.07;;;;;;;16.72;61.05;100117.13;10392326;28;20053;-81
2022/09/11 19:45:08;;;;;;;15.90;12.25;;;;;;;16.58;61.12;100109.47;10397277;28;20390;-81
2022/09/11 19:50:16;;;;;;;16.77;11.10;;;;;;;16.49;61.48;100110.22;10391293;28;20132;-82
2022/09/11 19:55:19;;;;;;;16.60;11.82;;;;;;;16.30;61.41;100125.00;10387775;28;20054;-82
2022/09/11 20:00:23;;;;;;;14.93;11.38;;;;;;;16.15;61.95;100122.63;10390026;28;20107;-82
2022/09/11 20:05:25;;;;;;;14.77;11.27;;;;;;;16.09;62.02;100120.50;10400285;28;20045;-82
2022/09/11 20:10:27;;;;;;;17.23;12.32;;;;;;;15.98;61.89;100117.00;10393996;28;20045;-81
2022/09/11 20:15:29;;;;;;;16.58;11.93;;;;;;;15.95;62.38;100122.53;10392021;28;20557;-82
2022/09/11 20:20:31;;;;;;;12.45;10.63;;;;;;;15.94;62.53;100115.56;10396196;28;20510;-82
2022/09/11 20:25:33;;;;;;;17.30;11.80;;;;;;;15.88;62.73;100122.16;10395928;28;20053;-82
2022/09/11 20:30:36;;;;;;;21.42;12.40;;;;;;;15.81;62.74;100125.41;10396246;28;20183;-82
2022/09/11 20:35:37;;;;;;;20.95;13.50;;;;;;;15.64;62.90;100120.59;10389113;28;20054;-81
2022/09/11 20:40:42;;;;;;;17.80;12.55;;;;;;;15.56;63.58;100113.28;10388903;28;20112;-81
2022/09/11 20:45:44;;;;;;;26.92;12.60;;;;;;;15.54;63.21;100115.22;10385843;28;20052;-81
2022/09/11 20:50:49;;;;;;;15.90;11.55;;;;;;;15.54;63.25;100112.56;10382020;28;20053;-81
2022/09/11 20:55:52;;;;;;;17.85;11.75;;;;;;;15.48;63.57;100115.66;10387763;28;20069;-81
2022/09/11 21:00:55;;;;;;;13.80;12.02;;;;;;;15.45;63.41;100115.06;10385788;28;20065;-81
2022/09/11 21:06:06;;;;;;;20.38;13.18;;;;;;;15.36;63.54;100116.59;10386537;28;20140;-81
2022/09/11 21:11:10;;;;;;;19.13;13.57;;;;;;;15.25;63.75;100116.56;10388017;28;20057;-81
2022/09/11 21:16:13;;;;;;;18.05;12.63;;;;;;;15.17;63.87;100119.78;10390809;28;20053;-81
2022/09/11 21:21:16;;;;;;;16.73;12.90;;;;;;;15.11;63.91;100111.50;10389196;28;20041;-81
2022/09/11 21:26:18;;;;;;;19.52;13.20;;;;;;;15.03;63.86;100113.88;10388274;28;20098;-81
2022/09/11 21:31:19;;;;;;;18.58;12.82;;;;;;;14.98;63.89;100116.03;10390172;28;20049;-81
2022/09/11 21:36:22;;;;;;;15.68;12.48;;;;;;;14.93;63.85;100112.88;10390203;28;20047;-80
2022/09/11 21:41:24;;;;;;;23.38;13.45;;;;;;;14.89;64.01;100111.44;10388008;28;20068;-81
2022/09/11 21:46:25;;;;;;;16.83;12.52;;;;;;;14.82;64.18;100102.34;10388567;28;20075;-80
2022/09/11 21:51:28;;;;;;;18.50;13.05;;;;;;;14.77;64.17;100102.66;10389031;28;20049;-81
2022/09/11 21:56:31;;;;;;;19.38;12.65;;;;;;;14.73;64.36;100105.63;10391930;28;20142;-81
2022/09/11 22:01:34;;;;;;;19.80;12.50;;;;;;;14.68;64.29;100102.47;10389886;28;20068;-81
2022/09/11 22:06:36;;;;;;;18.33;13.48;;;;;;;14.62;64.46;100106.41;10390991;28;20053;-81
2022/09/11 22:11:38;;;;;;;21.20;14.27;;;;;;;14.58;64.56;100097.91;10388482;28;20506;-81
2022/09/11 22:16:39;;;;;;;15.95;12.40;;;;;;;14.52;64.41;100093.09;10390736;28;20136;-81
2022/09/11 22:21:41;;;;;;;19.63;13.45;;;;;;;14.46;64.58;100087.41;10387533;28;20061;-81
2022/09/11 22:26:43;;;;;;;19.17;13.15;;;;;;;14.42;64.47;100089.44;10387733;28;20045;-81
2022/09/11 22:31:45;;;;;;;20.02;13.05;;;;;;;14.27;64.84;100098.44;10391617;28;20057;-81
2022/09/11 22:36:47;;;;;;;19.70;12.32;;;;;;;14.25;64.89;100102.97;10381860;28;20052;-81
2022/09/11 22:41:49;;;;;;;21.88;13.45;;;;;;;14.08;64.83;100097.25;10383472;28;20173;-80
2022/09/11 22:46:51;;;;;;;21.40;14.40;;;;;;;13.94;64.95;100098.22;10388518;28;20891;-81
2022/09/11 22:51:53;;;;;;;17.38;12.07;;;;;;;13.88;65.07;100093.38;10386762;28;20551;-81
2022/09/11 22:56:54;;;;;;;17.58;12.38;;;;;;;13.87;65.21;100094.34;10388527;28;20121;-80
2022/09/11 23:01:57;;;;;;;16.50;12.50;;;;;;;13.89;65.17;100102.97;10386750;28;20152;-81
2022/09/11 23:07:14;;;;;;;19.92;13.30;;;;;;;13.87;65.25;100096.97;10387365;28;20060;-81
2022/09/11 23:12:16;;;;;;;21.75;12.73;;;;;;;13.81;64.97;100094.78;10392394;28;20139;-81
2022/09/11 23:17:18;;;;;;;33.53;16.92;;;;;;;13.73;65.04;100086.59;10386067;28;20089;-81